Time;durP1;ratioP1;P1;durP2;ratioP2;P2;SDS_P1;SDS_P2;PMS_P1;PMS_P2;Temp;Humidity;BMP_temperature;BMP_pressure;BME280_temperature;BME280_humidity;BME280_pressure;Samples;Min_cycle;Max_cycle;Signal;HPM_P1;HPM_P2
2021/05/04 00:00:45;;;;;;;12.03;5.67;;;;;;;10.66;51.26;100792.08;125604;1099;106644;-75
2021/05/04 00:03:18;;;;;;;;;;;;;;;10.58;51.46;100796.10;125719;1099;104188;-74
2021/05/04 00:05:46;;;;;;;10.30;5.08;;;;;;;10.49;51.88;100798.39;125666;1097;104233;-74
2021/05/04 00:08:14;;;;;;;9.90;5.83;;;;;;;10.43;51.48;100801.64;125681;1099;104233;-74
2021/05/04 00:10:42;;;;;;;9.53;4.87;;;;;;;10.40;52.06;100799.78;125659;1099;104299;-74
2021/05/04 00:13:10;;;;;;;10.10;5.20;;;;;;;10.38;52.22;100796.20;125656;1099;104234;-74
2021/05/04 00:15:38;;;;;;;10.97;5.30;;;;;;;10.35;52.32;100797.81;125662;1099;104236;-74
2021/05/04 00:18:06;;;;;;;13.53;5.50;;;;;;;10.29;52.43;100793.16;125633;1099;104168;-74
2021/05/04 00:20:33;;;;;;;11.10;5.30;;;;;;;10.24;51.76;100805.20;125651;1099;104194;-74
2021/05/04 00:23:02;;;;;;;11.67;5.27;;;;;;;10.20;52.47;100800.65;125667;1097;104214;-74
2021/05/04 00:25:30;;;;;;;11.93;4.97;;;;;;;10.17;52.20;100800.52;125647;1099;104261;-75
2021/05/04 00:27:58;;;;;;;9.93;5.00;;;;;;;10.12;52.53;100800.33;125674;1099;104172;-74
2021/05/04 00:30:26;;;;;;;8.93;5.07;;;;;;;10.11;52.53;100798.52;125625;1099;104168;-75
2021/05/04 00:32:54;;;;;;;12.57;4.67;;;;;;;10.11;52.19;100801.14;125662;1097;104162;-74
2021/05/04 00:35:22;;;;;;;9.60;5.03;;;;;;;10.11;52.20;100808.12;125642;1099;104178;-75
2021/05/04 00:37:49;;;;;;;9.40;4.47;;;;;;;10.10;52.91;100804.62;125670;1099;104165;-75
2021/05/04 00:40:17;;;;;;;11.00;5.20;;;;;;;10.10;52.80;100806.33;125625;1097;104742;-75
2021/05/04 00:42:47;;;;;;;10.80;5.10;;;;;;;10.07;52.75;100807.99;125606;1099;104172;-74
2021/05/04 00:45:16;;;;;;;10.93;4.80;;;;;;;10.02;52.84;100817.40;125618;1099;104776;-75
2021/05/04 00:47:45;;;;;;;13.57;4.97;;;;;;;9.97;52.90;100818.94;125624;1099;104168;-74
2021/05/04 00:50:15;;;;;;;9.43;4.30;;;;;;;9.93;52.77;100822.24;125694;1099;104149;-74
2021/05/04 00:52:44;;;;;;;11.40;4.40;;;;;;;9.87;52.98;100812.38;125636;1099;104278;-74
2021/05/04 00:55:15;;;;;;;9.67;4.37;;;;;;;9.86;52.94;100826.33;125567;1099;104297;-74
2021/05/04 00:57:43;;;;;;;7.90;4.37;;;;;;;9.88;52.69;100822.05;125673;1098;104242;-74
2021/05/04 01:00:12;;;;;;;8.83;4.33;;;;;;;9.89;53.04;100825.55;125648;1098;104300;-75
2021/05/04 01:02:42;;;;;;;10.07;5.20;;;;;;;9.88;53.05;100831.64;125693;1099;104210;-75
2021/05/04 01:05:11;;;;;;;11.33;4.60;;;;;;;9.86;52.77;100828.95;125668;1098;104174;-74
2021/05/04 01:07:39;;;;;;;8.90;4.90;;;;;;;9.85;52.65;100829.77;125610;1097;104267;-74
2021/05/04 01:10:08;;;;;;;10.40;4.80;;;;;;;9.80;53.34;100820.82;125615;1099;104181;-74
2021/05/04 01:12:36;;;;;;;9.23;4.57;;;;;;;9.77;52.75;100823.31;125651;1099;104204;-74
2021/05/04 01:15:05;;;;;;;10.10;4.27;;;;;;;9.75;53.03;100821.44;125668;1099;104390;-74
2021/05/04 01:17:34;;;;;;;10.87;4.70;;;;;;;9.66;53.23;100814.05;125687;1097;104201;-74
2021/05/04 01:20:03;;;;;;;9.23;4.53;;;;;;;9.61;52.84;100807.72;125645;1099;104172;-76
2021/05/04 01:22:31;;;;;;;8.20;4.37;;;;;;;9.52;52.91;100813.44;125633;1099;104179;-74
2021/05/04 01:24:59;;;;;;;7.97;4.30;;;;;;;9.44;53.11;100820.98;125651;1099;104168;-74
2021/05/04 01:27:28;;;;;;;9.50;5.13;;;;;;;9.38;53.30;100819.78;125668;1099;104168;-74
2021/05/04 01:29:55;;;;;;;10.17;4.50;;;;;;;9.34;53.93;100826.61;125633;1099;104175;-75
2021/05/04 01:32:24;;;;;;;10.27;4.70;;;;;;;9.32;53.99;100825.66;125612;1099;104181;-75
2021/05/04 01:34:52;;;;;;;9.37;4.87;;;;;;;9.29;53.55;100834.25;125658;1099;104172;-75
2021/05/04 01:37:19;;;;;;;10.40;5.00;;;;;;;9.27;54.05;100832.38;125641;1099;104204;-75
2021/05/04 01:39:49;;;;;;;13.13;5.50;;;;;;;9.26;53.86;100825.38;125665;1099;104253;-75
2021/05/04 01:42:19;;;;;;;7.43;4.53;;;;;;;9.28;54.27;100835.06;125651;1099;103135;-75
2021/05/04 01:44:48;;;;;;;9.40;4.70;;;;;;;9.29;53.65;100835.98;125607;1099;104355;-74
2021/05/04 01:47:16;;;;;;;10.70;5.23;;;;;;;9.28;53.75;100836.80;125645;1099;104222;-75
2021/05/04 01:49:44;;;;;;;7.40;4.43;;;;;;;9.30;54.31;100840.37;125626;1098;104175;-74
2021/05/04 01:52:13;;;;;;;10.93;4.50;;;;;;;9.30;54.41;100836.06;125643;1099;104168;-74
2021/05/04 01:54:42;;;;;;;10.10;4.60;;;;;;;9.32;54.42;100829.16;125656;1099;104178;-75
2021/05/04 01:57:10;;;;;;;9.10;4.97;;;;;;;9.31;54.24;100819.50;125628;1098;104389;-74
2021/05/04 01:59:38;;;;;;;8.20;4.60;;;;;;;9.28;54.24;100824.59;125647;1099;104291;-75
2021/05/04 02:02:06;;;;;;;8.13;4.47;;;;;;;9.22;54.12;100828.66;125638;1099;104217;-74
2021/05/04 02:04:34;;;;;;;11.70;4.70;;;;;;;9.16;53.91;100827.56;125667;1099;104310;-74
2021/05/04 02:07:03;;;;;;;10.23;5.07;;;;;;;9.13;54.00;100834.36;125624;1098;104229;-75
2021/05/04 02:09:32;;;;;;;12.47;4.60;;;;;;;9.09;54.07;100832.44;125639;1099;104299;-75
2021/05/04 02:12:00;;;;;;;10.57;4.87;;;;;;;9.04;54.36;100833.92;125641;1099;104294;-75
2021/05/04 02:14:29;;;;;;;10.00;5.20;;;;;;;9.01;54.83;100839.92;125616;1099;104647;-74
2021/05/04 02:16:56;;;;;;;10.77;5.10;;;;;;;8.96;54.35;100841.41;125642;1098;104704;-75
2021/05/04 02:19:24;;;;;;;11.73;5.10;;;;;;;8.89;54.87;100837.61;125673;1099;104179;-75
2021/05/04 02:21:52;;;;;;;10.97;4.80;;;;;;;8.88;54.91;100842.77;125621;1099;104287;-75
2021/05/04 02:24:20;;;;;;;8.60;4.37;;;;;;;8.82;54.91;100840.78;125665;1099;104303;-74
2021/05/04 02:26:48;;;;;;;8.83;4.87;;;;;;;8.78;54.87;100846.67;125656;1098;104184;-74
2021/05/04 02:29:16;;;;;;;8.57;4.70;;;;;;;8.78;54.46;100846.67;125658;1099;104242;-75
2021/05/04 02:31:48;;;;;;;9.40;4.87;;;;;;;8.76;55.30;100846.59;125622;1099;104175;-75
2021/05/04 02:34:16;;;;;;;11.00;5.30;;;;;;;8.77;55.06;100847.48;125663;1099;104204;-74
2021/05/04 02:36:44;;;;;;;8.40;4.30;;;;;;;8.80;55.44;100850.25;125701;1099;104297;-74
2021/05/04 02:39:12;;;;;;;9.50;4.40;;;;;;;8.84;55.49;100840.85;125616;1099;104226;-74
2021/05/04 02:41:40;;;;;;;10.70;4.20;;;;;;;8.89;54.91;100844.58;125613;1098;104239;-75
2021/05/04 02:44:08;;;;;;;12.50;4.50;;;;;;;8.92;55.29;100845.61;125671;1099;104217;-74
2021/05/04 02:46:36;;;;;;;12.00;5.35;;;;;;;8.94;55.08;100849.22;125626;1099;104277;-74
2021/05/04 02:49:04;;;;;;;13.90;4.80;;;;;;;8.97;55.00;100859.80;125663;1099;104168;-74
2021/05/04 02:51:32;;;;;;;11.43;4.93;;;;;;;8.98;55.09;100858.11;125610;1099;104278;-75
2021/05/04 02:54:00;;;;;;;8.27;4.70;;;;;;;8.92;55.51;100858.70;125656;1099;104226;-75
2021/05/04 02:56:28;;;;;;;9.70;4.80;;;;;;;8.86;55.29;100855.78;125662;1099;104217;-74
2021/05/04 02:58:56;;;;;;;10.77;4.73;;;;;;;8.76;55.15;100861.41;125614;1099;104243;-75
2021/05/04 03:01:24;;;;;;;12.50;5.17;;;;;;;8.66;55.88;100860.04;125655;1099;104294;-75
2021/05/04 03:03:51;;;;;;;12.70;5.33;;;;;;;8.58;55.99;100864.01;125603;1099;104169;-74
2021/05/04 03:06:20;;;;;;;11.33;4.60;;;;;;;8.53;56.20;100866.39;125625;1099;105016;-74
2021/05/04 03:08:48;;;;;;;10.40;5.70;;;;;;;8.49;55.54;100867.05;125630;1099;104181;-74
2021/05/04 03:11:17;;;;;;;11.33;5.67;;;;;;;8.45;56.00;100878.20;125644;1099;104181;-75
2021/05/04 03:13:47;;;;;;;9.93;4.77;;;;;;;8.41;55.84;100882.36;125626;1099;104239;-74
2021/05/04 03:16:16;;;;;;;11.83;4.77;;;;;;;8.35;56.33;100886.35;125631;1099;104175;-75
2021/05/04 03:18:43;;;;;;;9.73;4.97;;;;;;;8.32;56.39;100884.50;125627;1099;104908;-74
2021/05/04 03:21:11;;;;;;;9.77;4.80;;;;;;;8.31;56.17;100884.42;125639;1099;104306;-74
2021/05/04 03:23:39;;;;;;;10.57;4.87;;;;;;;8.28;56.36;100896.50;125625;1099;104181;-74
2021/05/04 03:26:08;;;;;;;10.10;5.37;;;;;;;8.28;55.94;100893.88;125618;1097;104168;-75
2021/05/04 03:28:37;;;;;;;11.47;5.43;;;;;;;8.26;56.05;100897.27;125602;1098;104169;-74
2021/05/04 03:31:05;;;;;;;10.37;5.17;;;;;;;8.24;56.20;100894.57;125675;1099;104270;-75
2021/05/04 03:33:33;;;;;;;10.85;5.15;;;;;;;8.24;56.37;100898.88;125569;1099;104172;-75
2021/05/04 03:36:01;;;;;;;9.17;5.00;;;;;;;8.24;56.51;100910.26;125619;1099;104396;-75
2021/05/04 03:38:29;;;;;;;12.27;5.30;;;;;;;8.24;56.59;100914.56;125623;1099;104302;-75
2021/05/04 03:40:57;;;;;;;9.00;4.87;;;;;;;8.24;56.51;100909.33;125590;1099;104159;-75
2021/05/04 03:43:25;;;;;;;12.37;4.97;;;;;;;8.24;56.70;100918.09;125627;1099;104355;-75
2021/05/04 03:45:53;;;;;;;9.37;4.47;;;;;;;8.27;56.46;100920.88;125633;1099;104334;-75
2021/05/04 03:48:21;;;;;;;11.93;3.80;;;;;;;8.31;56.57;100926.27;125665;1099;104192;-75
2021/05/04 03:50:49;;;;;;;11.67;4.80;;;;;;;8.36;56.72;100924.77;125659;1099;104168;-75
2021/05/04 03:53:17;;;;;;;13.70;4.30;;;;;;;8.47;56.90;100921.01;125595;1099;104300;-75
2021/05/04 03:55:46;;;;;;;8.30;4.73;;;;;;;8.56;57.38;100921.48;125608;1099;104172;-75
2021/05/04 03:58:14;;;;;;;8.23;4.43;;;;;;;8.68;56.93;100925.52;125617;1099;104704;-75
2021/05/04 04:00:42;;;;;;;10.60;5.03;;;;;;;8.75;57.40;100922.41;125588;1099;104297;-74
2021/05/04 04:03:10;;;;;;;11.13;5.13;;;;;;;8.78;57.56;100926.06;125642;1099;104245;-75
2021/05/04 04:05:38;;;;;;;9.50;4.93;;;;;;;8.78;57.61;100923.44;125644;1099;104297;-74
2021/05/04 04:08:06;;;;;;;11.00;5.00;;;;;;;8.75;57.51;100922.41;125636;1098;104297;-75
2021/05/04 04:10:38;;;;;;;13.27;5.13;;;;;;;8.76;57.16;100926.83;125660;1099;104238;-75
2021/05/04 04:13:07;;;;;;;12.07;4.40;;;;;;;8.87;57.44;100925.63;125652;1099;104219;-75
2021/05/04 04:15:34;;;;;;;9.87;4.50;;;;;;;8.94;57.62;100932.05;125670;1099;104223;-75
2021/05/04 04:18:02;;;;;;;10.97;4.33;;;;;;;8.99;56.91;100931.47;125650;1099;104174;-75
2021/05/04 04:20:30;;;;;;;11.63;5.37;;;;;;;9.10;56.94;100933.69;125660;1099;104197;-75
2021/05/04 04:22:58;;;;;;;10.73;4.80;;;;;;;9.10;56.88;100931.99;125631;1099;104175;-75
2021/05/04 04:25:26;;;;;;;10.10;4.90;;;;;;;9.11;56.87;100938.11;125593;1099;104293;-75
2021/05/04 04:27:54;;;;;;;11.07;4.73;;;;;;;9.12;56.92;100942.54;125665;1099;104464;-75
2021/05/04 04:30:24;;;;;;;9.97;5.00;;;;;;;9.18;57.57;100940.22;125668;1099;104182;-75
2021/05/04 04:32:52;;;;;;;18.37;5.10;;;;;;;9.24;57.54;100932.66;125604;1099;104168;-75
2021/05/04 04:35:22;;;;;;;8.83;4.77;;;;;;;9.33;57.61;100942.66;125658;1099;104329;-75
2021/05/04 04:37:50;;;;;;;14.07;4.60;;;;;;;9.40;56.99;100943.88;125639;1099;104321;-76
2021/05/04 04:40:18;;;;;;;10.17;4.53;;;;;;;9.48;56.85;100950.36;125619;1099;104363;-75
2021/05/04 04:42:47;;;;;;;12.23;4.33;;;;;;;9.57;56.83;100940.31;125640;1099;104185;-75
2021/05/04 04:45:16;;;;;;;13.13;4.80;;;;;;;9.71;56.76;100944.47;125649;1099;102289;-74
2021/05/04 04:47:57;;;;;;;8.17;4.87;;;;;;;9.83;57.37;100941.52;125664;1099;104296;-75
2021/05/04 04:50:28;;;;;;;8.07;4.60;;;;;;;10.00;57.22;100938.75;125617;1099;104175;-74
2021/05/04 04:52:56;;;;;;;10.43;4.67;;;;;;;10.10;57.19;100942.67;125582;1099;104207;-75
2021/05/04 04:55:24;;;;;;;8.10;4.40;;;;;;;10.19;56.52;100940.46;125616;1099;104220;-75
2021/05/04 04:57:52;;;;;;;7.77;4.20;;;;;;;10.25;56.78;100938.11;125663;1099;104168;-76
2021/05/04 05:00:21;;;;;;;8.60;4.50;;;;;;;10.27;56.24;100944.34;125651;1099;104166;-75
2021/05/04 05:02:49;;;;;;;11.83;5.00;;;;;;;10.31;56.61;100945.36;125652;1099;105713;-77
2021/05/04 05:05:17;;;;;;;8.95;4.40;;;;;;;10.34;56.55;100942.91;125645;1099;104206;-75
2021/05/04 05:07:45;;;;;;;10.40;4.17;;;;;;;10.38;56.25;100945.73;125624;1099;104175;-75
2021/05/04 05:10:14;;;;;;;11.53;4.73;;;;;;;10.43;56.58;100956.43;125612;1099;104293;-75
2021/05/04 05:12:42;;;;;;;12.33;4.47;;;;;;;10.49;56.72;100945.31;125649;1099;104217;-75
2021/05/04 05:15:12;;;;;;;9.55;4.85;;;;;;;10.58;56.54;100945.67;125607;1099;104232;-75
2021/05/04 05:17:40;;;;;;;8.00;3.97;;;;;;;10.70;56.51;100943.58;125647;1099;104162;-76
2021/05/04 05:20:09;;;;;;;6.50;4.07;;;;;;;10.82;56.18;100950.20;125655;1099;104168;-74
2021/05/04 05:22:37;;;;;;;11.53;4.40;;;;;;;10.87;56.21;100944.28;125634;1099;104248;-75
2021/05/04 05:25:06;;;;;;;10.20;4.50;;;;;;;10.94;56.20;100948.08;125643;1099;104240;-74
2021/05/04 05:27:35;;;;;;;14.27;4.50;;;;;;;11.03;55.97;100945.84;125666;1099;104231;-75
2021/05/04 05:30:08;;;;;;;10.75;3.80;;;;;;;11.18;55.87;100944.66;125667;1099;104166;-74
2021/05/04 05:32:35;;;;;;;5.03;3.33;;;;;;;11.36;55.61;100942.77;125687;1099;104226;-75
2021/05/04 05:35:05;;;;;;;9.30;4.07;;;;;;;11.61;55.76;100944.62;125639;1099;104294;-75
2021/05/04 05:37:33;;;;;;;8.30;3.60;;;;;;;11.86;55.54;100945.55;125689;1099;104266;-76
2021/05/04 05:40:01;;;;;;;8.50;4.13;;;;;;;12.02;55.29;100949.67;125608;1099;104175;-77
2021/05/04 05:42:29;;;;;;;8.53;3.83;;;;;;;12.12;55.07;100953.53;125638;1099;104166;-76
2021/05/04 05:44:58;;;;;;;9.57;3.83;;;;;;;12.18;54.97;100946.75;125643;1099;104166;-76
2021/05/04 05:47:25;;;;;;;10.77;4.20;;;;;;;12.25;55.01;100944.34;125637;1099;104166;-76
2021/05/04 05:49:57;;;;;;;8.80;3.93;;;;;;;12.32;54.66;100935.84;125639;1099;104266;-76
2021/05/04 05:52:34;;;;;;;9.23;3.90;;;;;;;12.40;54.58;100936.99;125599;1098;104344;-76
2021/05/04 05:55:02;;;;;;;6.97;3.87;;;;;;;12.45;54.45;100940.70;125596;1099;104204;-76
2021/05/04 05:57:32;;;;;;;7.57;3.60;;;;;;;12.53;54.75;100943.61;125592;1099;104165;-76
2021/05/04 06:00:01;;;;;;;8.43;4.00;;;;;;;12.63;54.10;100936.91;125594;1097;105321;-77
2021/05/04 06:02:29;;;;;;;8.10;3.57;;;;;;;12.76;53.87;100941.73;125595;1099;104223;-77
2021/05/04 06:04:57;;;;;;;7.87;3.50;;;;;;;12.92;53.99;100940.53;125521;1099;104223;-76
2021/05/04 06:07:26;;;;;;;8.93;3.40;;;;;;;13.03;54.03;100941.77;125614;1097;104319;-76
2021/05/04 06:09:56;;;;;;;7.27;3.30;;;;;;;13.11;53.56;100939.39;125640;1099;104235;-78
2021/05/04 06:12:27;;;;;;;11.23;3.47;;;;;;;13.12;53.08;100934.17;125608;1099;104239;-77
2021/05/04 06:14:55;;;;;;;6.37;3.33;;;;;;;13.16;53.32;100936.91;125618;1099;104300;-77
2021/05/04 06:17:26;;;;;;;5.80;3.25;;;;;;;13.27;53.50;100932.86;125557;1099;104444;-76
2021/05/04 06:19:54;;;;;;;6.07;3.30;;;;;;;13.41;53.20;100931.58;125644;1099;104207;-77
2021/05/04 06:22:22;;;;;;;6.53;3.60;;;;;;;13.48;52.24;100936.20;125633;1098;104175;-77
2021/05/04 06:25:01;;;;;;;9.53;3.67;;;;;;;13.50;52.11;100933.61;125555;1099;104172;-77
2021/05/04 06:27:31;;;;;;;6.13;3.47;;;;;;;13.60;52.62;100935.70;125559;1099;104332;-78
2021/05/04 06:29:59;;;;;;;12.67;3.53;;;;;;;13.76;52.63;100933.48;125537;1099;104469;-76
2021/05/04 06:32:29;;;;;;;6.60;3.30;;;;;;;13.96;52.72;100934.98;125567;1099;104192;-77
2021/05/04 06:34:57;;;;;;;8.57;3.33;;;;;;;14.19;52.43;100926.81;125580;1099;104270;-76
2021/05/04 06:37:28;;;;;;;7.17;2.90;;;;;;;14.32;51.51;100917.47;125569;1099;104165;-78
2021/05/04 06:40:00;;;;;;;7.33;2.97;;;;;;;14.38;51.36;100921.20;125469;1099;104239;-78
2021/05/04 06:42:37;;;;;;;4.43;3.13;;;;;;;14.44;50.91;100917.80;125506;1099;102321;-78
2021/05/04 06:45:15;;;;;;;6.37;3.50;;;;;;;14.42;49.91;100908.95;125610;1099;104156;-79
2021/05/04 06:47:44;;;;;;;4.77;2.70;;;;;;;14.44;50.12;100901.97;125488;1099;104226;-79
2021/05/04 06:50:13;;;;;;;4.40;3.00;;;;;;;14.52;50.09;100907.45;125582;1099;104296;-78
2021/05/04 06:52:43;;;;;;;4.70;3.03;;;;;;;14.57;49.75;100913.77;125560;1099;104191;-78
2021/05/04 06:55:12;;;;;;;6.73;3.33;;;;;;;14.71;50.18;100919.44;125537;1099;104169;-78
2021/05/04 06:57:44;;;;;;;4.90;3.00;;;;;;;14.83;50.20;100916.19;125494;1099;104175;-78
2021/05/04 07:00:13;;;;;;;8.17;3.13;;;;;;;14.93;49.94;100915.58;124874;1099;104310;-77
2021/05/04 07:02:43;;;;;;;6.67;2.57;;;;;;;15.03;48.81;100919.33;124915;1098;104159;-78
2021/05/04 07:05:13;;;;;;;8.33;2.83;;;;;;;15.07;48.89;100906.22;124875;1099;104168;-79
2021/05/04 07:07:42;;;;;;;6.07;2.77;;;;;;;15.13;49.60;100905.48;124842;1099;104159;-79
2021/05/04 07:10:13;;;;;;;6.47;2.87;;;;;;;15.17;48.35;100920.54;124912;1102;104471;-80
2021/05/04 07:12:43;;;;;;;7.27;2.90;;;;;;;15.22;49.11;100920.65;124864;1101;104350;-79
2021/05/04 07:15:13;;;;;;;5.77;2.87;;;;;;;15.24;49.21;100916.31;124822;1099;104159;-81
2021/05/04 07:17:42;;;;;;;7.27;3.30;;;;;;;15.20;48.62;100912.69;124878;1102;103967;-78
2021/05/04 07:20:19;;;;;;;5.67;3.23;;;;;;;15.20;48.61;100917.09;124884;1102;104437;-79
2021/05/04 07:22:53;;;;;;;5.17;2.77;;;;;;;15.24;48.39;100913.67;124928;1099;104203;-80
2021/05/04 07:25:21;;;;;;;;;;;;;;;15.34;45.63;100920.05;124971;1098;104177;-79
2021/05/04 07:27:54;;;;;;;6.07;2.70;;;;;;;15.43;47.50;100912.33;124867;1098;104175;-79
2021/05/04 07:30:25;;;;;;;4.57;2.40;;;;;;;15.59;47.97;100917.08;124931;1099;104169;-77
2021/05/04 07:32:54;;;;;;;4.10;2.70;;;;;;;15.77;47.17;100911.34;125499;1099;104226;-79
2021/05/04 07:35:23;;;;;;;4.67;2.47;;;;;;;15.92;46.71;100915.16;125614;1099;104166;-79
2021/05/04 07:37:51;;;;;;;4.47;2.40;;;;;;;16.03;46.98;100907.44;125519;1099;104194;-78
2021/05/04 07:40:20;;;;;;;3.97;2.50;;;;;;;16.03;46.23;100903.02;125675;1099;104178;-77
2021/05/04 07:42:49;;;;;;;5.30;2.40;;;;;;;16.05;45.40;100908.34;125582;1099;104280;-78
2021/05/04 07:45:17;;;;;;;7.97;2.40;;;;;;;16.03;45.16;100908.31;125590;1099;104316;-77
2021/05/04 07:47:51;;;;;;;5.97;2.60;;;;;;;16.03;45.98;100910.96;125623;1099;104159;-78
2021/05/04 07:50:24;;;;;;;5.10;2.70;;;;;;;16.12;46.15;100905.84;125597;1098;104232;-78
2021/05/04 07:52:54;;;;;;;10.90;2.80;;;;;;;16.25;46.39;100908.73;125609;1099;104162;-76
2021/05/04 07:55:23;;;;;;;11.03;2.70;;;;;;;16.37;45.96;100906.32;125668;1099;104709;-75
2021/05/04 07:57:51;;;;;;;5.07;2.33;;;;;;;16.54;45.72;100899.56;125654;1099;104172;-76
2021/05/04 08:00:22;;;;;;;4.90;2.70;;;;;;;16.81;45.26;100905.31;125635;1099;104165;-77
2021/05/04 08:02:51;;;;;;;3.97;2.30;;;;;;;17.09;45.21;100897.84;125669;1099;104159;-78
2021/05/04 08:05:20;;;;;;;3.27;2.40;;;;;;;17.29;44.21;100900.80;125570;1099;104291;-77
2021/05/04 08:07:49;;;;;;;3.23;2.53;;;;;;;17.39;44.85;100900.03;125645;1099;104163;-78
2021/05/04 08:10:18;;;;;;;7.00;2.77;;;;;;;17.49;44.51;100895.77;125572;1099;104169;-77
2021/05/04 08:12:49;;;;;;;6.17;2.70;;;;;;;17.58;44.77;100890.59;125569;1099;104229;-77
2021/05/04 08:15:19;;;;;;;4.07;2.50;;;;;;;17.85;44.07;100895.34;125577;1099;104274;-76
2021/05/04 08:17:55;;;;;;;5.30;2.53;;;;;;;18.05;43.95;100886.77;125662;1099;104168;-77
2021/05/04 08:20:31;;;;;;;6.73;2.33;;;;;;;18.07;43.68;100885.02;125583;1099;104243;-77
2021/05/04 08:23:00;;;;;;;5.50;2.70;;;;;;;18.19;43.46;100877.17;125541;1099;104259;-77
2021/05/04 08:25:33;;;;;;;2.97;2.63;;;;;;;18.30;43.46;100882.60;125656;1099;104168;-76
2021/05/04 08:28:04;;;;;;;5.43;2.27;;;;;;;18.37;43.66;100883.55;125611;1099;104281;-77
2021/05/04 08:30:33;;;;;;;5.60;2.70;;;;;;;18.48;43.44;100876.55;125580;1099;102188;-77
2021/05/04 08:33:01;;;;;;;4.27;2.30;;;;;;;18.53;43.06;100880.17;125633;1099;104185;-77
2021/05/04 08:35:31;;;;;;;3.87;2.10;;;;;;;18.69;42.74;100886.50;125637;1099;104418;-77
2021/05/04 08:38:00;;;;;;;3.53;2.20;;;;;;;18.78;42.82;100877.73;125656;1099;104223;-77
2021/05/04 08:40:29;;;;;;;3.97;2.30;;;;;;;18.91;41.60;100882.27;125542;1099;104288;-76
2021/05/04 08:42:57;;;;;;;4.27;2.20;;;;;;;18.95;42.31;100880.55;125589;1099;104181;-76
2021/05/04 08:45:33;;;;;;;3.10;2.47;;;;;;;19.04;41.95;100872.61;125575;1099;104293;-77
2021/05/04 08:48:03;;;;;;;6.72;2.27;;;;;;;19.15;41.49;100876.25;125562;1096;104638;-77
2021/05/04 08:50:39;;;;;;;4.10;2.20;;;;;;;19.30;41.88;100885.20;125658;1099;104522;-78
2021/05/04 08:53:07;;;;;;;3.45;2.35;;;;;;;19.43;41.50;100879.08;125569;1099;104178;-76
2021/05/04 08:55:36;;;;;;;4.00;2.40;;;;;;;19.53;41.68;100875.56;125592;1099;104322;-76
2021/05/04 08:58:04;;;;;;;2.30;2.10;;;;;;;19.61;40.65;100875.60;125658;1099;104178;-76
2021/05/04 09:00:33;;;;;;;4.50;2.23;;;;;;;19.74;41.05;100866.80;125580;1099;104200;-76
2021/05/04 09:03:06;;;;;;;2.87;2.10;;;;;;;19.98;40.67;100866.91;125582;1099;104239;-77
2021/05/04 09:05:42;;;;;;;5.30;2.30;;;;;;;20.20;40.52;100866.06;125591;1099;104182;-77
2021/05/04 09:08:32;;;;;;;6.03;2.30;;;;;;;20.32;39.91;100864.30;125719;1099;104226;-77
2021/05/04 09:11:32;;;;;;;3.77;2.27;;;;;;;20.20;40.26;100854.52;125793;1099;104232;-78
2021/05/04 09:14:16;;;;;;;6.60;2.23;;;;;;;20.05;39.74;100848.25;125511;1099;104233;-77
2021/05/04 09:17:04;;;;;;;2.73;2.20;;;;;;;20.01;39.00;100849.16;125568;1098;104178;-77
2021/05/04 09:19:41;;;;;;;3.13;2.10;;;;;;;19.93;39.26;100845.59;125642;1099;104165;-79
2021/05/04 09:22:16;;;;;;;2.83;2.03;;;;;;;19.80;38.45;100838.44;125601;1099;105875;-77
2021/05/04 09:25:26;;;;;;;4.80;2.57;;;;;;;19.85;39.26;100842.00;125526;1099;104172;-76
2021/05/04 09:28:12;;;;;;;2.93;2.17;;;;;;;20.04;38.60;100846.50;125383;1099;104235;-79
2021/05/04 09:30:52;;;;;;;3.73;2.30;;;;;;;20.09;38.31;100842.06;125552;1099;104160;-76
2021/05/04 09:33:46;;;;;;;3.63;2.40;;;;;;;20.09;38.83;100834.06;125415;1099;104348;-77
2021/05/04 09:36:42;;;;;;;5.67;2.47;;;;;;;19.93;38.10;100842.93;125535;1099;104188;-76
2021/05/04 09:39:28;;;;;;;4.53;1.87;;;;;;;19.80;38.78;100831.33;125439;1099;104322;-78
2021/05/04 09:41:59;;;;;;;2.57;2.00;;;;;;;19.61;38.39;100822.36;125335;1099;104159;-77
2021/05/04 09:44:39;;;;;;;2.57;2.00;;;;;;;19.49;38.05;100814.33;124959;1099;104169;-78
2021/05/04 09:47:12;;;;;;;3.63;1.93;;;;;;;19.36;38.04;100824.92;125502;1099;104152;-78
2021/05/04 09:49:48;;;;;;;3.02;2.30;;;;;;;19.19;37.94;100824.83;125023;1099;104172;-79
2021/05/04 09:52:31;;;;;;;4.13;2.03;;;;;;;19.07;37.94;100821.22;124945;1099;104159;-80
2021/05/04 09:55:05;;;;;;;2.20;1.93;;;;;;;18.95;38.02;100814.95;125598;1099;104364;-77
2021/05/04 09:57:37;;;;;;;3.53;2.33;;;;;;;18.88;37.67;100814.91;125480;1099;104424;-77
2021/05/04 10:00:09;;;;;;;4.47;2.43;;;;;;;18.71;37.50;100812.09;124975;1099;104364;-77
2021/05/04 10:02:38;;;;;;;3.93;2.37;;;;;;;18.56;37.32;100813.77;125488;1099;104651;-76
2021/05/04 10:05:13;;;;;;;4.73;2.30;;;;;;;18.47;37.19;100811.03;125414;1099;104226;-76
2021/05/04 10:07:44;;;;;;;4.07;2.30;;;;;;;18.38;36.96;100803.86;125500;1099;104239;-76
2021/05/04 10:10:15;;;;;;;2.80;2.33;;;;;;;18.41;36.85;100800.34;124960;1099;104345;-77
2021/05/04 10:12:48;;;;;;;5.30;2.20;;;;;;;18.46;36.75;100798.61;125121;1099;104652;-77
2021/05/04 10:15:17;;;;;;;4.67;2.60;;;;;;;18.49;37.16;100793.32;124981;1099;104284;-78
2021/05/04 10:17:46;;;;;;;4.93;2.33;;;;;;;18.76;36.97;100792.65;125518;1099;104175;-76
2021/05/04 10:20:19;;;;;;;3.30;2.17;;;;;;;19.08;37.03;100789.31;125539;1099;104213;-77
2021/05/04 10:22:48;;;;;;;4.27;2.23;;;;;;;19.33;36.67;100773.47;126093;1099;104262;-76
2021/05/04 10:25:20;;;;;;;4.40;2.20;;;;;;;19.29;36.63;100767.27;125533;1099;104226;-76
2021/05/04 10:27:53;;;;;;;2.43;2.07;;;;;;;19.06;36.26;100771.55;125589;1099;104178;-77
2021/05/04 10:30:24;;;;;;;4.50;2.40;;;;;;;18.96;36.01;100776.83;125574;1099;104176;-76
2021/05/04 10:32:54;;;;;;;3.33;2.07;;;;;;;18.85;35.59;100770.56;125570;1099;104044;-76
2021/05/04 10:35:35;;;;;;;6.03;2.10;;;;;;;18.67;35.90;100769.54;125623;1099;104271;-76
2021/05/04 10:38:06;;;;;;;5.23;2.40;;;;;;;18.57;36.05;100773.00;125597;1099;104182;-76
2021/05/04 10:40:44;;;;;;;2.40;2.20;;;;;;;18.59;36.44;100757.98;125596;1099;104172;-76
2021/05/04 10:43:39;;;;;;;5.50;2.90;;;;;;;18.61;35.55;100765.96;125531;1099;104364;-76
2021/05/04 10:46:30;;;;;;;6.50;2.57;;;;;;;18.29;35.20;100767.50;125568;1099;104172;-76
2021/05/04 10:49:01;;;;;;;3.00;2.37;;;;;;;18.19;35.48;100768.28;125478;1099;104213;-76
2021/05/04 10:51:45;;;;;;;2.77;2.07;;;;;;;18.20;35.57;100766.51;125556;1099;104328;-77
2021/05/04 10:54:15;;;;;;;4.03;2.33;;;;;;;18.35;35.53;100773.73;125776;1099;104329;-76
2021/05/04 10:56:47;;;;;;;4.13;2.30;;;;;;;18.45;35.11;100765.84;125650;1099;104379;-76
2021/05/04 10:59:45;;;;;;;4.97;2.40;;;;;;;18.50;35.45;100755.25;125543;1099;104271;-77
2021/05/04 11:02:29;;;;;;;3.87;1.73;;;;;;;18.83;35.02;100757.23;125487;1099;104353;-78
2021/05/04 11:05:11;;;;;;;7.17;2.22;;;;;;;19.08;34.89;100743.22;125578;1099;104188;-78
2021/05/04 11:08:11;;;;;;;4.08;2.00;;;;;;;19.10;35.01;100749.42;125554;1099;104261;-78
2021/05/04 11:10:41;;;;;;;3.15;2.20;;;;;;;18.99;35.01;100752.03;125552;1099;104235;-78
2021/05/04 11:13:43;;;;;;;5.15;2.40;;;;;;;18.95;35.34;100744.94;125542;1099;104470;-77
2021/05/04 11:16:35;;;;;;;5.13;2.40;;;;;;;18.83;34.98;100745.72;125455;1099;104176;-76
2021/05/04 11:19:05;;;;;;;7.53;2.43;;;;;;;18.73;34.79;100749.19;125388;1099;104152;-77
2021/05/04 11:21:39;;;;;;;3.20;2.27;;;;;;;18.82;34.61;100743.92;125478;1099;104166;-76
2021/05/04 11:24:11;;;;;;;4.00;2.20;;;;;;;18.88;34.39;100743.12;125556;1099;103446;-76
2021/05/04 11:26:51;;;;;;;5.27;2.40;;;;;;;19.11;35.11;100733.48;125512;1099;104229;-77